Time;durP1;ratioP1;P1;durP2;ratioP2;P2;SDS_P1;SDS_P2;PMS_P1;PMS_P2;Temp;Humidity;BMP_temperature;BMP_pressure;BME280_temperature;BME280_humidity;BME280_pressure;Samples;Min_cycle;Max_cycle;Signal;HPM_P1;HPM_P2
2022/07/02 00:00:15;;;;;;;1999.90;999.90;;;17.30;99.90;;;;;;5069655;28;20577;-76
2022/07/02 00:02:43;;;;;;;1999.90;999.90;;;17.30;99.90;;;;;;5074265;28;20173;-76
2022/07/02 00:05:12;;;;;;;1999.90;999.90;;;17.30;99.90;;;;;;5074908;28;20200;-76
2022/07/02 00:07:38;;;;;;;1999.90;999.90;;;17.40;99.90;;;;;;5067058;28;20234;-76
2022/07/02 00:10:05;;;;;;;1999.90;999.90;;;17.40;99.90;;;;;;5048336;28;20728;-76
2022/07/02 00:12:31;;;;;;;1999.90;999.90;;;17.40;99.90;;;;;;5071032;28;20194;-76
2022/07/02 00:14:58;;;;;;;1999.90;999.90;;;17.50;99.90;;;;;;5080137;28;20185;-76
2022/07/02 00:17:24;;;;;;;1999.90;999.90;;;17.40;99.90;;;;;;5077035;28;20185;-76
2022/07/02 00:19:52;;;;;;;1999.90;999.90;;;17.50;99.90;;;;;;5067040;28;20189;-76
2022/07/02 00:22:18;;;;;;;1999.90;999.90;;;17.50;99.90;;;;;;5079038;28;20177;-76
2022/07/02 00:24:44;;;;;;;1999.90;999.90;;;17.60;99.90;;;;;;5071595;28;20214;-76
2022/07/02 00:27:17;;;;;;;1999.90;999.90;;;17.60;99.90;;;;;;5074049;28;20188;-76
2022/07/02 00:29:53;;;;;;;1999.90;999.90;;;17.60;99.90;;;;;;5073249;28;20600;-76
2022/07/02 00:32:19;;;;;;;1999.90;999.90;;;17.60;99.90;;;;;;5073058;28;20234;-76
2022/07/02 00:34:45;;;;;;;1999.90;999.90;;;17.60;99.90;;;;;;5038117;28;20566;-76
2022/07/02 00:37:13;;;;;;;1999.90;999.90;;;17.60;99.90;;;;;;5063127;28;20183;-76
2022/07/02 00:39:40;;;;;;;1999.90;999.90;;;17.60;99.90;;;;;;5064257;28;20593;-76
2022/07/02 00:42:08;;;;;;;1999.90;999.90;;;17.60;99.90;;;;;;5085689;28;20546;-75
2022/07/02 00:44:34;;;;;;;1999.90;999.90;;;17.60;99.90;;;;;;5088096;28;20260;-76
2022/07/02 00:47:05;;;;;;;1999.90;999.90;;;17.70;99.90;;;;;;5091953;28;20184;-76
2022/07/02 00:49:34;;;;;;;1999.90;999.90;;;17.60;99.90;;;;;;5088505;28;20283;-76
2022/07/02 00:52:01;;;;;;;1999.90;999.90;;;17.60;99.90;;;;;;5059053;28;20223;-75
2022/07/02 00:54:27;;;;;;;1999.90;999.90;;;17.60;99.90;;;;;;5073130;28;20184;-76
2022/07/02 00:56:53;;;;;;;1999.90;999.90;;;17.60;99.90;;;;;;5054381;28;20185;-75
2022/07/02 00:59:23;;;;;;;1999.90;999.90;;;17.60;99.90;;;;;;5079733;28;20225;-75
2022/07/02 01:01:49;;;;;;;1999.90;999.90;;;17.60;99.90;;;;;;5071757;28;20546;-75
2022/07/02 01:04:15;;;;;;;1999.90;999.90;;;17.70;99.90;;;;;;5061017;28;20601;-75
2022/07/02 01:06:43;;;;;;;1999.90;999.90;;;17.70;99.90;;;;;;5072089;28;20177;-75
2022/07/02 01:11:59;;;;;;;1999.90;999.90;;;17.70;99.90;;;;;;5080012;28;20676;-75
2022/07/02 01:14:27;;;;;;;1999.90;999.90;;;17.70;99.90;;;;;;5085710;28;20177;-75
2022/07/02 01:16:53;;;;;;;1999.90;999.90;;;17.70;99.90;;;;;;5070491;28;20512;-75
2022/07/02 01:19:20;;;;;;;1999.90;999.90;;;17.70;99.90;;;;;;5060736;28;21623;-75
2022/07/02 01:22:15;;;;;;;1999.90;999.90;;;17.70;99.90;;;;;;5074361;28;20259;-74
2022/07/02 01:24:42;;;;;;;1999.90;999.90;;;17.70;99.90;;;;;;5072054;28;20169;-75
2022/07/02 01:27:08;;;;;;;1999.90;999.90;;;17.70;99.90;;;;;;5058380;28;20540;-74
2022/07/02 01:29:34;;;;;;;1999.90;999.90;;;17.80;99.90;;;;;;5088567;28;20253;-74
2022/07/02 01:32:00;;;;;;;1999.90;999.90;;;17.80;99.90;;;;;;5065796;28;20184;-73
2022/07/02 01:34:26;;;;;;;1999.90;999.90;;;17.90;99.90;;;;;;5070711;28;20205;-75
2022/07/02 01:36:51;;;;;;;1999.90;999.90;;;18.10;99.90;;;;;;5059956;28;20205;-74
2022/07/02 01:39:26;;;;;;;1999.90;999.90;;;18.00;99.90;;;;;;5050633;28;20200;-74
2022/07/02 01:41:52;;;;;;;1999.90;999.90;;;17.90;99.90;;;;;;5089668;28;20199;-75
2022/07/02 01:44:17;;;;;;;1999.90;999.90;;;17.90;99.90;;;;;;5067280;28;20638;-74
2022/07/02 01:46:44;;;;;;;1999.90;999.90;;;17.90;99.90;;;;;;5094617;28;20188;-75
2022/07/02 01:49:11;;;;;;;1999.90;999.90;;;17.90;99.90;;;;;;5068881;28;20212;-74
2022/07/02 01:51:36;;;;;;;1999.90;999.90;;;17.90;99.90;;;;;;5066496;28;20178;-74
2022/07/02 01:54:03;;;;;;;1999.90;999.90;;;18.00;99.90;;;;;;5076660;28;20276;-73
2022/07/02 01:56:33;;;;;;;1999.90;999.90;;;18.00;99.90;;;;;;5066793;28;20211;-74
2022/07/02 01:58:59;;;;;;;1999.90;999.90;;;18.00;99.90;;;;;;5067098;28;20227;-74
2022/07/02 02:01:24;;;;;;;1999.90;999.90;;;17.90;99.90;;;;;;5060684;28;20639;-73
2022/07/02 02:03:50;;;;;;;1999.90;999.90;;;17.90;99.90;;;;;;5086709;28;20208;-74
2022/07/02 02:06:16;;;;;;;1999.90;999.90;;;18.20;99.90;;;;;;5063001;28;20185;-73
2022/07/02 02:08:41;;;;;;;1999.90;999.90;;;18.30;99.90;;;;;;5071475;28;20527;-74
2022/07/02 02:11:07;;;;;;;1999.90;999.90;;;18.40;99.90;;;;;;5049036;28;20192;-74
2022/07/02 02:13:33;;;;;;;1999.90;999.90;;;18.40;99.90;;;;;;5072251;28;20538;-74
2022/07/02 02:15:58;;;;;;;1999.90;999.90;;;18.30;99.90;;;;;;5076040;28;20185;-74
2022/07/02 02:18:24;;;;;;;1999.90;999.90;;;18.20;99.90;;;;;;5075936;28;20189;-74
2022/07/02 02:20:49;;;;;;;1999.90;999.90;;;18.20;99.90;;;;;;5065789;28;20184;-74
2022/07/02 02:23:15;;;;;;;1999.90;999.90;;;18.10;99.90;;;;;;5089446;28;20642;-75
2022/07/02 02:25:41;;;;;;;1999.90;999.90;;;18.10;99.90;;;;;;5076482;28;20657;-78
2022/07/02 02:28:06;;;;;;;1999.90;999.90;;;18.10;99.90;;;;;;5060038;28;20633;-73
2022/07/02 02:30:32;;;;;;;1999.90;999.90;;;18.10;99.90;;;;;;5075999;28;20224;-74
2022/07/02 02:32:58;;;;;;;1999.90;999.90;;;18.10;99.90;;;;;;5079555;28;20201;-73
2022/07/02 02:35:23;;;;;;;1999.90;999.90;;;18.10;99.90;;;;;;5078652;28;20185;-73
2022/07/02 02:37:49;;;;;;;1999.90;999.90;;;18.00;99.90;;;;;;5077995;28;20185;-73
2022/07/02 02:40:14;;;;;;;1999.90;999.90;;;18.00;99.90;;;;;;5056419;28;20264;-74
2022/07/02 02:42:40;;;;;;;1999.90;999.90;;;17.90;99.90;;;;;;5052065;28;20195;-74
2022/07/02 02:45:07;;;;;;;1999.90;999.90;;;17.90;99.90;;;;;;5068156;28;20538;-73
2022/07/02 02:47:32;;;;;;;1999.90;999.90;;;17.70;99.90;;;;;;5083993;28;20248;-74
2022/07/02 02:49:58;;;;;;;1999.90;999.90;;;17.50;99.90;;;;;;5057815;28;20217;-74
2022/07/02 02:52:23;;;;;;;1999.90;999.90;;;17.50;99.90;;;;;;5043242;28;20184;-74
2022/07/02 02:54:49;;;;;;;1999.90;999.90;;;17.30;99.90;;;;;;5074719;28;20621;-74
2022/07/02 02:57:15;;;;;;;1999.90;999.90;;;17.20;99.90;;;;;;5074799;28;20185;-74
2022/07/02 02:59:40;;;;;;;1999.90;999.90;;;17.20;99.90;;;;;;5094364;28;20677;-74
2022/07/02 03:02:07;;;;;;;1999.90;999.90;;;17.10;99.90;;;;;;5082313;28;20166;-74
2022/07/02 03:04:33;;;;;;;1999.90;999.90;;;16.90;99.90;;;;;;5088447;28;20672;-74
2022/07/02 03:06:59;;;;;;;1999.90;999.90;;;16.80;99.90;;;;;;5057056;28;20173;-74
2022/07/02 03:09:24;;;;;;;1999.90;999.90;;;16.70;99.90;;;;;;5074795;28;20197;-74
2022/07/02 03:11:50;;;;;;;1999.90;999.90;;;16.60;99.90;;;;;;5074391;28;20530;-74
2022/07/02 03:14:16;;;;;;;1999.90;999.90;;;16.60;99.90;;;;;;5083072;28;20664;-74
2022/07/02 03:16:41;;;;;;;1999.90;999.90;;;16.50;99.90;;;;;;5050030;28;20653;-74
2022/07/02 03:19:07;;;;;;;1999.90;999.90;;;16.40;99.90;;;;;;5090091;28;20177;-74
2022/07/02 03:21:33;;;;;;;1999.90;999.90;;;16.40;99.90;;;;;;5073772;28;20549;-74
2022/07/02 03:23:58;;;;;;;1999.90;999.90;;;16.30;99.90;;;;;;5075697;28;20199;-74
2022/07/02 03:26:24;;;;;;;1999.90;999.90;;;16.20;99.90;;;;;;5081501;28;20203;-74
2022/07/02 03:28:50;;;;;;;1999.90;999.90;;;16.10;99.90;;;;;;5071916;28;20192;-75
2022/07/02 03:31:15;;;;;;;1999.90;999.90;;;16.10;99.90;;;;;;5074977;28;20284;-74
2022/07/02 03:33:41;;;;;;;1999.90;999.90;;;16.00;99.90;;;;;;5073742;28;20189;-74
2022/07/02 03:36:07;;;;;;;1999.90;999.90;;;16.00;99.90;;;;;;5075887;28;20177;-74
2022/07/02 03:38:33;;;;;;;1999.90;999.90;;;15.90;99.90;;;;;;5068927;28;20264;-74
2022/07/02 03:40:59;;;;;;;1999.90;999.90;;;15.90;99.90;;;;;;5074475;28;20706;-76
2022/07/02 03:43:24;;;;;;;1999.90;999.90;;;15.90;99.90;;;;;;5063360;28;20268;-74
2022/07/02 03:45:50;;;;;;;1999.90;999.90;;;15.90;99.90;;;;;;5083266;28;20259;-74
2022/07/02 03:48:16;;;;;;;1999.90;999.90;;;15.90;99.90;;;;;;5071809;28;20174;-74
2022/07/02 03:50:42;;;;;;;1999.90;999.90;;;15.90;99.90;;;;;;5062387;28;20200;-74
2022/07/02 03:53:09;;;;;;;1999.90;999.90;;;15.90;99.90;;;;;;5073843;28;20649;-74
2022/07/02 03:55:34;;;;;;;1999.90;999.90;;;15.90;99.90;;;;;;5072909;28;20203;-74
2022/07/02 03:58:00;;;;;;;1999.90;999.90;;;15.90;99.90;;;;;;5088915;28;20651;-74
2022/07/02 04:00:26;;;;;;;1999.90;999.90;;;15.90;99.90;;;;;;5053779;28;20238;-74
2022/07/02 04:02:52;;;;;;;1999.90;999.90;;;15.90;99.90;;;;;;5084814;28;20273;-74
2022/07/02 04:05:18;;;;;;;1999.90;999.90;;;15.90;99.90;;;;;;5074956;28;20659;-74
2022/07/02 04:07:43;;;;;;;1999.90;999.90;;;15.90;99.90;;;;;;5091677;28;20192;-74
2022/07/02 04:10:09;;;;;;;1999.90;999.90;;;16.00;99.90;;;;;;5084138;28;20289;-74
2022/07/02 04:12:35;;;;;;;1999.90;999.90;;;16.00;99.90;;;;;;5077069;28;20539;-74
2022/07/02 04:15:00;;;;;;;1999.90;999.90;;;16.00;99.90;;;;;;5075315;28;20234;-74
2022/07/02 04:17:26;;;;;;;1999.90;999.90;;;16.00;99.90;;;;;;5076950;28;20188;-74
2022/07/02 04:19:52;;;;;;;1999.90;999.90;;;16.00;99.90;;;;;;5063147;28;20569;-77
2022/07/02 04:22:17;;;;;;;1999.90;999.90;;;16.10;99.90;;;;;;5081978;28;20196;-74
2022/07/02 04:24:43;;;;;;;1999.90;999.90;;;16.30;99.90;;;;;;5058231;28;20192;-74
2022/07/02 04:27:09;;;;;;;1999.90;999.90;;;16.50;99.90;;;;;;5063053;28;20673;-73
2022/07/02 04:29:34;;;;;;;1999.90;999.90;;;16.70;99.90;;;;;;5070621;28;20265;-73
2022/07/02 04:32:00;;;;;;;1999.90;999.90;;;16.90;99.90;;;;;;5066022;28;20298;-75
2022/07/02 04:34:25;;;;;;;1999.90;999.90;;;17.10;99.90;;;;;;5070244;28;20542;-73
2022/07/02 04:36:51;;;;;;;1999.90;999.90;;;17.30;99.90;;;;;;5074952;28;20185;-73
2022/07/02 04:39:17;;;;;;;1999.90;999.90;;;17.30;99.90;;;;;;5068425;28;20177;-73
2022/07/02 04:41:42;;;;;;;1999.90;999.90;;;17.40;99.90;;;;;;5068768;28;20538;-74
2022/07/02 04:44:08;;;;;;;1999.90;999.90;;;17.40;99.90;;;;;;5069973;28;20184;-74
2022/07/02 04:46:34;;;;;;;1999.90;999.90;;;17.30;99.90;;;;;;5060605;28;20279;-73
2022/07/02 04:48:59;;;;;;;1999.90;999.90;;;17.30;99.90;;;;;;5080228;28;20189;-74
2022/07/02 04:51:25;;;;;;;1999.90;999.90;;;17.30;99.90;;;;;;5052734;28;20195;-73
2022/07/02 04:53:51;;;;;;;1999.90;999.90;;;17.40;99.90;;;;;;5074951;28;20189;-73
2022/07/02 04:56:16;;;;;;;1999.90;999.90;;;17.40;99.90;;;;;;5073001;28;20181;-73
2022/07/02 04:58:42;;;;;;;1999.90;999.90;;;17.30;99.90;;;;;;5085262;28;20219;-74
2022/07/02 05:01:08;;;;;;;1999.90;999.90;;;17.30;99.90;;;;;;5034358;28;20192;-73
2022/07/02 05:03:33;;;;;;;1999.90;999.90;;;17.20;99.90;;;;;;5064975;28;20196;-72
2022/07/02 05:05:59;;;;;;;1999.90;999.90;;;17.30;99.90;;;;;;5086083;28;20669;-73
2022/07/02 05:08:26;;;;;;;1999.90;999.90;;;17.40;99.90;;;;;;5080106;28;20185;-73
2022/07/02 05:10:53;;;;;;;1999.90;999.90;;;17.50;99.90;;;;;;5080122;28;20194;-74
2022/07/02 05:13:20;;;;;;;1999.90;999.90;;;17.60;99.90;;;;;;5060046;28;20658;-73
2022/07/02 05:15:46;;;;;;;1999.90;999.90;;;17.70;99.90;;;;;;5080604;28;20645;-73
2022/07/02 05:18:12;;;;;;;1999.90;999.90;;;17.70;99.90;;;;;;5062792;28;20263;-72
2022/07/02 05:20:38;;;;;;;1999.90;999.90;;;17.80;99.90;;;;;;5077682;28;20187;-72
2022/07/02 05:23:03;;;;;;;1999.90;999.90;;;18.00;99.90;;;;;;5078419;28;20192;-73
2022/07/02 05:25:29;;;;;;;1999.90;999.90;;;18.10;99.90;;;;;;5088252;28;20195;-73
2022/07/02 05:27:55;;;;;;;1999.90;999.90;;;18.20;99.90;;;;;;5087097;28;20249;-72
2022/07/02 05:30:20;;;;;;;1999.90;999.90;;;18.40;99.90;;;;;;5082343;28;20295;-72
2022/07/02 05:32:46;;;;;;;1999.90;999.90;;;18.30;99.90;;;;;;5090132;28;20220;-73
2022/07/02 05:35:15;;;;;;;1999.90;999.90;;;18.10;99.90;;;;;;5074221;28;20234;-73
2022/07/02 05:37:40;;;;;;;1999.90;999.90;;;18.00;99.90;;;;;;5089290;28;20543;-74
2022/07/02 05:40:07;;;;;;;1999.90;999.90;;;17.80;99.90;;;;;;5077313;28;20191;-73
2022/07/02 05:42:33;;;;;;;1999.90;999.90;;;17.60;99.90;;;;;;5073643;28;20173;-73
2022/07/02 05:44:59;;;;;;;1999.90;999.90;;;17.70;99.90;;;;;;5081223;28;20181;-75
2022/07/02 05:47:24;;;;;;;1999.90;999.90;;;17.80;99.90;;;;;;5055403;28;20516;-73
2022/07/02 05:49:50;;;;;;;1999.90;999.90;;;17.90;99.90;;;;;;5073615;28;20232;-72
2022/07/02 05:52:17;;;;;;;1999.90;999.90;;;17.80;99.90;;;;;;5072756;28;20234;-72
2022/07/02 05:54:44;;;;;;;1999.90;999.90;;;17.90;99.90;;;;;;5069072;28;20215;-73
2022/07/02 05:57:09;;;;;;;1999.90;999.90;;;18.00;99.90;;;;;;5090396;28;20764;-73
2022/07/02 05:59:36;;;;;;;1999.90;999.90;;;18.20;99.90;;;;;;5089422;28;20177;-73
2022/07/02 06:02:03;;;;;;;1999.90;999.90;;;18.20;99.90;;;;;;5066373;28;20216;-73
2022/07/02 06:04:28;;;;;;;1999.90;999.90;;;18.20;99.90;;;;;;5069570;28;20201;-73
2022/07/02 06:09:38;;;;;;;1999.90;999.90;;;18.20;99.90;;;;;;5075017;28;20719;-72
2022/07/02 06:12:04;;;;;;;1999.90;999.90;;;18.10;99.90;;;;;;5073479;28;20185;-75
2022/07/02 06:14:29;;;;;;;1999.90;999.90;;;18.20;99.90;;;;;;5043412;28;20193;-72
2022/07/02 06:16:55;;;;;;;1999.90;999.90;;;18.40;99.90;;;;;;5082188;28;20192;-72
2022/07/02 06:19:23;;;;;;;1999.90;999.90;;;18.40;99.90;;;;;;5056894;28;20318;-71
2022/07/02 06:21:49;;;;;;;1999.90;999.90;;;18.50;99.90;;;;;;5084937;28;20181;-72
2022/07/02 06:24:15;;;;;;;1999.90;999.90;;;18.30;99.90;;;;;;5070585;28;20304;-72
2022/07/02 06:26:40;;;;;;;1999.90;999.90;;;18.40;99.90;;;;;;5066984;28;20513;-76
2022/07/02 06:29:06;;;;;;;1999.90;999.90;;;18.50;99.90;;;;;;5089490;28;20188;-72
2022/07/02 06:31:32;;;;;;;1999.90;999.90;;;18.60;99.90;;;;;;5067118;28;20185;-72
2022/07/02 06:33:57;;;;;;;1999.90;999.90;;;18.80;99.90;;;;;;5094818;28;20591;-72
2022/07/02 06:36:24;;;;;;;1999.90;999.90;;;18.80;99.90;;;;;;5084325;28;20212;-72
2022/07/02 06:38:50;;;;;;;1999.90;999.90;;;19.00;99.90;;;;;;5060565;28;20187;-72
2022/07/02 06:44:01;;;;;;;1185.15;818.60;;;19.20;99.90;;;;;;5070213;28;20236;-72
2022/07/02 06:46:26;;;;;;;1485.93;999.90;;;19.40;99.90;;;;;;5070516;28;20205;-72
2022/07/02 06:48:52;;;;;;;1607.32;999.90;;;20.30;99.90;;;;;;5068530;28;20180;-74
2022/07/02 06:51:18;;;;;;;1579.28;999.90;;;21.90;99.90;;;;;;5079014;28;20193;-74
2022/07/02 06:53:43;;;;;;;1531.72;999.90;;;24.10;99.90;;;;;;5071122;28;20192;-75
2022/07/02 06:56:09;;;;;;;1501.10;999.90;;;25.30;99.90;;;;;;5081132;28;20210;-74
2022/07/02 06:58:35;;;;;;;1450.75;999.90;;;26.40;99.90;;;;;;5082484;28;20185;-74
2022/07/02 07:01:00;;;;;;;1442.45;999.90;;;27.40;99.90;;;;;;5088360;28;20188;-73
2022/07/02 07:03:26;;;;;;;1405.35;999.90;;;29.00;99.90;;;;;;5074954;28;20185;-74
2022/07/02 07:05:52;;;;;;;1372.63;999.90;;;30.30;99.90;;;;;;5075313;28;20644;-74
2022/07/02 07:08:18;;;;;;;1356.93;999.90;;;31.10;99.90;;;;;;5062505;28;20547;-74
2022/07/02 07:10:45;;;;;;;1354.90;999.90;;;30.10;99.90;;;;;;5082060;28;20204;-74
2022/07/02 07:13:10;;;;;;;1347.13;999.90;;;30.90;99.90;;;;;;5081419;28;20188;-75
2022/07/02 07:15:36;;;;;;;1333.15;999.90;;;30.90;99.90;;;;;;5048417;28;20521;-75
2022/07/02 07:18:02;;;;;;;1332.75;999.90;;;30.90;99.90;;;;;;5063071;28;20180;-74
2022/07/02 07:20:29;;;;;;;1327.07;999.90;;;32.00;99.90;;;;;;5053758;28;20328;-76
2022/07/02 07:22:56;;;;;;;1320.00;999.90;;;32.70;99.90;;;;;;5083184;28;20272;-76
2022/07/02 07:25:22;;;;;;;1315.63;999.90;;;33.90;99.90;;;;;;5066395;28;20187;-71
2022/07/02 07:27:48;;;;;;;1304.20;999.90;;;34.30;99.90;;;;;;5083208;28;20572;-72
2022/07/02 07:30:15;;;;;;;1292.47;999.90;;;34.90;98.80;;;;;;5050787;28;20225;-70
2022/07/02 07:32:41;;;;;;;1283.80;999.90;;;33.80;98.00;;;;;;5087558;28;20234;-70
2022/07/02 07:35:08;;;;;;;1275.50;999.90;;;33.80;98.00;;;;;;5076285;28;20663;-69
2022/07/02 07:37:35;;;;;;;1271.38;999.90;;;32.20;98.10;;;;;;5074982;28;20641;-73
2022/07/02 07:40:02;;;;;;;1267.95;999.90;;;31.50;98.60;;;;;;5066445;28;20181;-74
2022/07/02 07:42:28;;;;;;;1265.47;999.90;;;31.00;99.50;;;;;;5060690;28;20223;-73
2022/07/02 07:44:54;;;;;;;1261.32;999.90;;;30.90;99.20;;;;;;5059844;28;20180;-71
2022/07/02 07:47:19;;;;;;;1249.93;999.90;;;30.60;99.20;;;;;;5058768;28;20263;-73
2022/07/02 07:49:45;;;;;;;1258.70;999.90;;;30.10;99.90;;;;;;5039729;28;20707;-73
2022/07/02 07:52:11;;;;;;;1262.28;999.90;;;30.40;99.60;;;;;;5074486;28;20184;-73
2022/07/02 07:54:37;;;;;;;1259.47;999.90;;;30.80;99.40;;;;;;5081672;28;20177;-74
2022/07/02 07:57:04;;;;;;;1258.75;999.90;;;30.60;99.60;;;;;;5073358;28;20176;-76
2022/07/02 07:59:29;;;;;;;1273.57;999.90;;;31.70;99.30;;;;;;5074223;28;20184;-70
2022/07/02 08:01:55;;;;;;;1281.30;999.90;;;32.60;98.70;;;;;;5064312;28;20168;-71
2022/07/02 08:04:21;;;;;;;1273.00;999.90;;;33.90;99.00;;;;;;5083936;28;20223;-71
2022/07/02 08:06:46;;;;;;;1271.32;999.90;;;34.70;97.80;;;;;;5069088;28;20684;-71
2022/07/02 08:09:12;;;;;;;1271.30;999.90;;;34.10;97.30;;;;;;5058935;28;20641;-70
2022/07/02 08:11:38;;;;;;;1258.80;999.90;;;34.10;97.40;;;;;;5056645;28;20226;-71
2022/07/02 08:14:04;;;;;;;1259.60;999.90;;;32.10;97.30;;;;;;5054950;28;20245;-71
2022/07/02 08:16:30;;;;;;;1253.57;999.90;;;32.60;98.60;;;;;;5088945;28;20513;-70
2022/07/02 08:18:56;;;;;;;1259.53;999.90;;;33.30;97.60;;;;;;5056581;28;20314;-72
2022/07/02 08:21:22;;;;;;;1247.20;999.90;;;33.40;96.80;;;;;;5086619;28;20180;-74
2022/07/02 08:23:48;;;;;;;1256.55;999.90;;;33.10;97.80;;;;;;5079618;28;20184;-71
2022/07/02 08:26:13;;;;;;;1252.53;999.90;;;33.50;97.40;;;;;;5068364;28;20183;-75
2022/07/02 08:28:39;;;;;;;1253.03;999.90;;;34.10;96.90;;;;;;5067434;28;20185;-71
2022/07/02 08:31:05;;;;;;;1269.18;999.90;;;34.40;97.30;;;;;;5081091;28;20210;-69
2022/07/02 08:33:30;;;;;;;1297.50;999.90;;;34.40;96.80;;;;;;5075776;28;20189;-70
2022/07/02 08:35:56;;;;;;;1256.93;999.90;;;35.10;96.80;;;;;;5052110;28;20179;-68
2022/07/02 08:38:22;;;;;;;1254.90;999.90;;;34.80;96.10;;;;;;5059542;28;20238;-69
2022/07/02 08:40:48;;;;;;;1258.45;999.90;;;34.40;96.50;;;;;;5063662;28;20194;-69
2022/07/02 08:43:16;;;;;;;1260.43;999.90;;;34.30;96.40;;;;;;5079838;28;20549;-73
2022/07/02 08:45:43;;;;;;;1260.78;999.90;;;34.60;96.70;;;;;;5087853;28;20192;-73
2022/07/02 08:48:13;;;;;;;1253.38;999.90;;;35.10;95.90;;;;;;5056397;28;20181;-71
2022/07/02 08:50:40;;;;;;;1252.80;999.90;;;35.30;95.90;;;;;;5084093;28;20200;-70
2022/07/02 08:53:07;;;;;;;1250.03;999.90;;;34.40;95.80;;;;;;5055752;28;20191;-74
2022/07/02 08:55:34;;;;;;;1247.70;999.90;;;34.40;96.30;;;;;;5075670;28;20181;-76
2022/07/02 08:58:01;;;;;;;1249.28;999.90;;;34.60;95.60;;;;;;5080106;28;20740;-74
2022/07/02 09:00:28;;;;;;;1241.85;999.90;;;33.80;96.30;;;;;;5082396;28;20248;-71
2022/07/02 09:02:56;;;;;;;1244.15;999.90;;;33.60;96.10;;;;;;5088540;28;20187;-73
2022/07/02 09:05:25;;;;;;;1259.97;999.90;;;33.60;96.80;;;;;;5076416;28;20184;-73
2022/07/02 09:07:51;;;;;;;1249.15;999.90;;;33.50;96.60;;;;;;5060481;28;20490;-72
2022/07/02 09:10:20;;;;;;;1240.20;999.90;;;33.60;96.00;;;;;;5044661;28;20196;-71
2022/07/02 09:12:46;;;;;;;1234.85;999.90;;;32.40;96.30;;;;;;5090109;28;20233;-70
2022/07/02 09:15:14;;;;;;;1240.43;999.90;;;31.70;97.70;;;;;;5091410;28;20188;-70
2022/07/02 09:17:44;;;;;;;1247.88;999.90;;;32.10;97.80;;;;;;5072209;28;20244;-69
2022/07/02 09:20:11;;;;;;;1242.30;999.90;;;32.20;96.80;;;;;;5073241;28;20654;-70
2022/07/02 09:22:45;;;;;;;1246.32;999.90;;;31.00;96.90;;;;;;5087437;28;20188;-71
2022/07/02 09:25:16;;;;;;;1255.82;999.90;;;30.50;97.30;;;;;;5073496;28;20237;-70
2022/07/02 09:27:44;;;;;;;1250.47;999.90;;;30.10;97.40;;;;;;5084858;28;20197;-70
2022/07/02 09:30:12;;;;;;;1260.68;999.90;;;29.70;98.40;;;;;;5074356;28;20200;-68
2022/07/02 09:32:40;;;;;;;1255.13;999.90;;;30.00;97.70;;;;;;5076085;28;20176;-67
2022/07/02 09:35:06;;;;;;;1247.20;999.90;;;29.50;97.50;;;;;;5049178;28;20569;-70
2022/07/02 09:37:32;;;;;;;1255.05;999.90;;;28.80;98.80;;;;;;5059679;28;20641;-72
2022/07/02 09:40:02;;;;;;;1263.05;999.90;;;28.30;99.30;;;;;;5037382;28;20187;-72
2022/07/02 09:42:29;;;;;;;1268.45;999.90;;;27.50;99.30;;;;;;5088870;28;20648;-71
2022/07/02 09:44:56;;;;;;;1265.20;999.90;;;27.10;99.80;;;;;;5063919;28;20177;-72
2022/07/02 09:47:32;;;;;;;1268.05;999.90;;;26.90;99.90;;;;;;5056950;28;20180;-70
2022/07/02 09:50:05;;;;;;;1264.88;999.90;;;26.60;99.20;;;;;;5066175;28;20203;-70
2022/07/02 09:52:31;;;;;;;1274.88;999.90;;;26.10;99.60;;;;;;5066778;28;20280;-77
2022/07/02 09:54:57;;;;;;;1281.55;999.90;;;26.30;99.90;;;;;;5067558;28;20272;-70
2022/07/02 09:57:23;;;;;;;1286.85;999.90;;;26.40;99.90;;;;;;5064566;28;20180;-73
2022/07/02 09:59:49;;;;;;;1276.82;999.90;;;26.40;99.90;;;;;;5071370;28;20237;-73
2022/07/02 10:02:25;;;;;;;1282.13;999.90;;;26.60;99.30;;;;;;5067061;28;20263;-72
2022/07/02 10:04:52;;;;;;;1288.25;999.90;;;26.80;99.90;;;;;;5087971;28;21200;-74
2022/07/02 10:07:21;;;;;;;1290.10;999.90;;;27.00;99.70;;;;;;5071608;28;20604;-78
2022/07/02 10:09:47;;;;;;;1289.85;999.90;;;27.30;99.70;;;;;;5072356;28;20208;-75
2022/07/02 10:12:15;;;;;;;1289.65;999.90;;;27.10;99.60;;;;;;5073779;28;20204;-70
2022/07/02 10:14:43;;;;;;;1297.50;999.90;;;27.10;99.70;;;;;;5083396;28;20185;-74
2022/07/02 10:17:10;;;;;;;1299.78;999.90;;;27.20;99.90;;;;;;5077729;28;20204;-72
2022/07/02 10:19:38;;;;;;;1298.55;999.90;;;27.10;99.90;;;;;;5059968;28;20241;-71
2022/07/02 10:22:05;;;;;;;1290.68;999.90;;;27.00;99.90;;;;;;5089344;28;20199;-72
2022/07/02 10:24:32;;;;;;;1293.78;999.90;;;27.00;99.90;;;;;;5077555;28;20252;-71
2022/07/02 10:26:59;;;;;;;1292.50;999.90;;;27.20;99.70;;;;;;5068639;28;20188;-75
2022/07/02 10:29:26;;;;;;;1297.47;999.90;;;27.20;99.90;;;;;;5062599;28;20287;-80
2022/07/02 10:32:23;;;;;;;1299.25;999.90;;;27.20;99.90;;;;;;5077738;28;20210;-82
2022/07/02 10:35:06;;;;;;;1287.63;999.90;;;27.10;99.20;;;;;;5078187;28;20180;-80
2022/07/02 10:37:32;;;;;;;1291.65;999.90;;;26.60;98.90;;;;;;5064328;28;20278;-77
2022/07/02 10:40:04;;;;;;;1289.00;999.90;;;26.30;99.90;;;;;;5085904;28;20177;-72
2022/07/02 10:42:38;;;;;;;1294.75;999.90;;;26.10;99.90;;;;;;5078287;28;20569;-77
2022/07/02 10:45:18;;;;;;;1294.13;999.90;;;26.40;99.90;;;;;;5061726;28;20585;-83
2022/07/02 10:48:00;;;;;;;1296.82;999.90;;;26.50;99.90;;;;;;5063598;28;20249;-76
2022/07/02 10:50:45;;;;;;;1304.80;999.90;;;26.80;99.90;;;;;;5087787;28;20188;-71
2022/07/02 10:53:19;;;;;;;1301.50;999.90;;;26.90;99.90;;;;;;5081555;28;20234;-71
2022/07/02 10:56:05;;;;;;;1304.13;999.90;;;26.90;99.50;;;;;;5092905;28;20714;-72
2022/07/02 10:58:37;;;;;;;1292.28;999.90;;;26.70;99.80;;;;;;5074136;28;20726;-71
2022/07/02 11:01:10;;;;;;;1297.28;999.90;;;26.50;99.80;;;;;;5080136;28;20263;-72
2022/07/02 11:03:36;;;;;;;1301.88;999.90;;;26.30;99.90;;;;;;5089346;28;20267;-74
2022/07/02 11:06:06;;;;;;;1310.75;999.90;;;26.20;99.90;;;;;;5087064;28;20327;-70
2022/07/02 11:08:44;;;;;;;1301.22;999.90;;;26.40;99.90;;;;;;5081927;28;20173;-70
2022/07/02 11:11:12;;;;;;;1305.65;999.90;;;26.70;99.90;;;;;;5067626;28;20291;-77
2022/07/02 11:14:04;;;;;;;1305.32;999.90;;;26.60;99.90;;;;;;5067132;28;20207;-74
2022/07/02 11:16:38;;;;;;;1305.40;999.90;;;26.40;99.90;;;;;;5068897;28;20600;-69
2022/07/02 11:19:28;;;;;;;1310.60;999.90;;;26.40;99.90;;;;;;5073583;28;20716;-72
2022/07/02 11:21:57;;;;;;;1316.50;999.90;;;26.50;99.90;;;;;;5049285;28;20202;-72
2022/07/02 11:24:24;;;;;;;1320.93;999.90;;;26.80;99.90;;;;;;5079226;28;20660;-72
2022/07/02 11:26:51;;;;;;;1318.65;999.90;;;26.90;99.90;;;;;;5062775;28;20183;-70
2022/07/02 11:29:17;;;;;;;1311.13;999.90;;;26.90;99.90;;;;;;5080308;28;20189;-70
2022/07/02 11:31:48;;;;;;;1319.05;999.90;;;26.90;99.90;;;;;;5076047;28;20195;-69
2022/07/02 11:34:20;;;;;;;1310.97;999.90;;;26.90;99.90;;;;;;5088630;28;20251;-72
2022/07/02 11:36:46;;;;;;;1319.00;999.90;;;26.60;99.90;;;;;;5078270;28;20181;-76
2022/07/02 11:39:13;;;;;;;1313.28;999.90;;;26.50;99.90;;;;;;5088550;28;20185;-72
2022/07/02 11:41:40;;;;;;;1319.85;999.90;;;26.60;99.90;;;;;;5068605;28;20241;-75
2022/07/02 11:44:16;;;;;;;1316.70;999.90;;;26.80;99.90;;;;;;5088413;28;20652;-75
2022/07/02 11:46:45;;;;;;;1308.25;999.90;;;27.20;99.90;;;;;;5066420;28;20184;-73
2022/07/02 11:49:16;;;;;;;1306.57;999.90;;;27.10;99.90;;;;;;5056134;28;20193;-75
2022/07/02 11:51:44;;;;;;;1309.88;999.90;;;26.90;99.90;;;;;;5086289;28;20195;-75
2022/07/02 11:54:11;;;;;;;1308.63;999.90;;;27.00;99.90;;;;;;5084111;28;20184;-72
2022/07/02 11:56:39;;;;;;;1306.32;999.90;;;27.20;99.80;;;;;;5076194;28;20229;-73
2022/07/02 11:59:08;;;;;;;1308.35;999.90;;;27.20;99.50;;;;;;5062356;28;20184;-72
2022/07/02 12:01:40;;;;;;;1300.53;999.90;;;27.30;99.70;;;;;;5079976;28;20278;-73
2022/07/02 12:04:09;;;;;;;1301.65;999.90;;;27.20;99.70;;;;;;5089207;28;20223;-75
2022/07/02 12:06:40;;;;;;;1306.78;999.90;;;26.80;99.80;;;;;;5078257;28;20185;-74